createdAt,value
2023-02-12T00:01:10.966Z,9.00
2023-02-12T00:03:42.046Z,8.73
2023-02-12T00:06:13.521Z,6.83
2023-02-12T00:08:43.077Z,5.90
2023-02-12T00:11:13.964Z,7.33
2023-02-12T00:13:43.967Z,6.83
2023-02-12T00:16:14.790Z,7.67
2023-02-12T00:18:45.103Z,7.47
2023-02-12T00:21:14.215Z,8.10
2023-02-12T00:23:42.544Z,7.70
2023-02-12T00:26:12.515Z,8.00
2023-02-12T00:28:46.801Z,8.00
2023-02-12T00:31:17.623Z,7.60
2023-02-12T00:33:47.508Z,7.60
2023-02-12T00:36:17.563Z,7.57
2023-02-12T00:38:46.800Z,7.70
2023-02-12T00:41:15.443Z,8.10
2023-02-12T00:43:43.838Z,8.67
2023-02-12T00:46:12.922Z,8.47
2023-02-12T00:48:41.360Z,9.23
2023-02-12T00:51:11.050Z,9.73
2023-02-12T00:53:39.403Z,9.03
2023-02-12T00:56:08.877Z,8.93
2023-02-12T00:58:37.393Z,9.47
2023-02-12T01:01:08.262Z,10.07
2023-02-12T01:03:38.572Z,9.80
2023-02-12T01:06:07.225Z,9.40
2023-02-12T01:08:37.029Z,10.00
2023-02-12T01:11:06.870Z,9.10
2023-02-12T01:13:36.464Z,9.80
2023-02-12T01:16:09.232Z,9.40
2023-02-12T01:18:39.176Z,12.20
2023-02-12T01:21:14.874Z,10.93
2023-02-12T01:23:45.592Z,11.33
2023-02-12T01:26:15.043Z,10.20
2023-02-12T01:28:45.080Z,11.07
2023-02-12T01:31:15.723Z,11.87
2023-02-12T01:33:44.707Z,9.30
2023-02-12T01:36:12.989Z,10.50
2023-02-12T01:38:41.498Z,9.83
2023-02-12T01:41:13.460Z,8.80
2023-02-12T01:43:41.782Z,9.03
2023-02-12T01:46:14.141Z,10.40
2023-02-12T01:48:45.534Z,8.73
2023-02-12T01:51:17.540Z,9.03
2023-02-12T01:53:51.415Z,9.83
2023-02-12T01:56:21.611Z,8.77
2023-02-12T01:58:52.947Z,9.60
2023-02-12T02:01:25.779Z,8.97
2023-02-12T02:03:57.146Z,8.43
2023-02-12T02:06:29.147Z,8.80
2023-02-12T02:08:58.824Z,9.53
2023-02-12T02:11:45.948Z,8.80
2023-02-12T02:14:31.608Z,9.20
2023-02-12T02:17:30.949Z,9.50
2023-02-12T02:20:31.736Z,8.83
2023-02-12T02:23:18.265Z,8.17
2023-02-12T02:26:23.153Z,8.17
2023-02-12T02:29:06.113Z,7.13
2023-02-12T02:31:41.840Z,8.13
2023-02-12T02:34:18.182Z,8.20
2023-02-12T02:37:00.264Z,7.60
2023-02-12T02:39:38.706Z,7.77
2023-02-12T02:42:11.522Z,7.13
2023-02-12T02:44:45.056Z,7.77
2023-02-12T02:47:17.263Z,8.27
2023-02-12T02:49:51.245Z,7.77
2023-02-12T02:52:25.560Z,8.13
2023-02-12T02:54:57.409Z,7.60
2023-02-12T02:57:29.715Z,7.80
2023-02-12T03:00:04.273Z,8.60
2023-02-12T03:02:38.081Z,8.93
2023-02-12T03:05:11.988Z,8.30
2023-02-12T03:07:46.548Z,8.20
2023-02-12T03:10:18.400Z,8.27
2023-02-12T03:12:53.159Z,8.33
2023-02-12T03:15:25.688Z,8.17
2023-02-12T03:17:56.300Z,7.17
2023-02-12T03:20:29.415Z,7.07
2023-02-12T03:23:02.153Z,6.57
2023-02-12T03:25:36.265Z,6.93
2023-02-12T03:28:10.293Z,7.47
2023-02-12T03:30:45.664Z,7.13
2023-02-12T03:33:26.413Z,6.73
2023-02-12T03:36:02.479Z,6.60
2023-02-12T03:38:38.226Z,7.73
2023-02-12T03:41:10.788Z,6.90
2023-02-12T03:43:50.412Z,6.63
2023-02-12T03:46:23.780Z,7.23
2023-02-12T03:49:02.113Z,6.97
2023-02-12T03:51:35.896Z,7.00
2023-02-12T03:54:05.406Z,7.17
2023-02-12T03:56:39.091Z,7.10
2023-02-12T03:59:07.653Z,6.27
2023-02-12T04:01:36.894Z,6.83
2023-02-12T04:04:08.264Z,9.77
2023-02-12T04:06:37.135Z,8.80
2023-02-12T04:09:07.649Z,8.10
2023-02-12T04:11:48.747Z,7.53
2023-02-12T04:14:25.851Z,8.40
2023-02-12T04:17:04.533Z,7.33
2023-02-12T04:19:44.406Z,7.30
2023-02-12T04:22:25.925Z,7.40
2023-02-12T04:25:03.100Z,7.13
2023-02-12T04:27:38.434Z,7.37
2023-02-12T04:30:15.744Z,7.77
2023-02-12T04:32:48.417Z,7.33
2023-02-12T04:35:24.195Z,7.63
2023-02-12T04:37:58.536Z,7.10
2023-02-12T04:40:27.780Z,6.93
2023-02-12T04:42:56.156Z,7.23
2023-02-12T04:45:27.242Z,7.90
2023-02-12T04:47:55.515Z,8.03
2023-02-12T04:50:25.342Z,7.27
2023-02-12T04:52:53.601Z,6.80
2023-02-12T04:55:21.821Z,7.40
2023-02-12T04:57:50.045Z,7.70
2023-02-12T05:00:19.142Z,7.30
2023-02-12T05:02:47.385Z,8.47
2023-02-12T05:05:15.874Z,8.37
2023-02-12T05:07:45.511Z,7.83
2023-02-12T05:10:14.376Z,8.90
2023-02-12T05:12:42.589Z,9.33
2023-02-12T05:15:11.362Z,7.50
2023-02-12T05:17:39.652Z,8.13
2023-02-12T05:20:09.022Z,8.47
2023-02-12T05:22:37.384Z,8.70
2023-02-12T05:25:07.638Z,9.73
2023-02-12T05:27:35.857Z,10.40
2023-02-12T05:30:05.505Z,9.53
2023-02-12T05:32:33.760Z,10.30
2023-02-12T05:35:02.257Z,10.40
2023-02-12T05:37:31.573Z,10.67
2023-02-12T05:39:59.855Z,10.77
2023-02-12T05:42:30.653Z,10.17
2023-02-12T05:44:58.914Z,10.27
2023-02-12T05:47:27.127Z,10.47
2023-02-12T05:49:55.338Z,11.00
2023-02-12T05:52:23.611Z,10.27
2023-02-12T05:54:51.988Z,11.27
2023-02-12T05:57:20.348Z,10.27
2023-02-12T05:59:49.919Z,10.23
2023-02-12T06:02:18.151Z,10.50
2023-02-12T06:04:48.518Z,10.07
2023-02-12T06:07:16.949Z,10.63
2023-02-12T06:09:45.436Z,10.63
2023-02-12T06:12:13.685Z,11.63
2023-02-12T06:14:42.529Z,11.03
2023-02-12T06:17:12.112Z,11.40
2023-02-12T06:19:40.372Z,11.20
2023-02-12T06:22:08.596Z,10.57
2023-02-12T06:24:37.268Z,11.70
2023-02-12T06:27:05.564Z,10.90
2023-02-12T06:29:33.792Z,11.60
2023-02-12T06:32:02.145Z,11.47
2023-02-12T06:34:31.946Z,11.53
2023-02-12T06:37:00.174Z,12.13
2023-02-12T06:39:28.397Z,13.10
2023-02-12T06:41:56.710Z,12.47
2023-02-12T06:44:24.939Z,12.97
2023-02-12T06:46:53.621Z,12.57
2023-02-12T06:49:21.927Z,13.10
2023-02-12T06:51:51.556Z,13.57
2023-02-12T06:54:20.136Z,13.57
2023-02-12T06:56:48.372Z,13.47
2023-02-12T06:59:18.237Z,13.63
2023-02-12T07:01:46.565Z,15.00
2023-02-12T07:04:15.051Z,14.00
2023-02-12T07:06:43.351Z,15.80
2023-02-12T07:09:13.040Z,14.47
2023-02-12T07:11:41.290Z,14.93
2023-02-12T07:14:14.252Z,14.43
2023-02-12T07:16:42.665Z,14.70
2023-02-12T07:19:14.531Z,14.80
2023-02-12T07:21:42.842Z,13.97
2023-02-12T07:24:13.832Z,14.87
2023-02-12T07:26:42.736Z,15.70
2023-02-12T07:29:11.448Z,14.53
2023-02-12T07:31:40.174Z,14.73
2023-02-12T07:34:08.513Z,15.07
2023-02-12T07:36:36.871Z,15.80
2023-02-12T07:39:06.286Z,14.93
2023-02-12T07:41:37.439Z,14.90
2023-02-12T07:44:07.845Z,15.40
2023-02-12T07:46:37.732Z,15.23
2023-02-12T07:49:07.653Z,15.77
2023-02-12T07:51:36.764Z,15.13
2023-02-12T07:54:06.003Z,15.10
2023-02-12T07:56:37.813Z,15.93
2023-02-12T07:59:08.622Z,16.30
2023-02-12T08:01:38.999Z,16.53
2023-02-12T08:04:10.540Z,15.83
2023-02-12T08:06:41.667Z,16.43
2023-02-12T08:09:12.900Z,17.97
2023-02-12T08:11:43.976Z,16.97
2023-02-12T08:14:13.654Z,17.37
2023-02-12T08:16:43.486Z,17.07
2023-02-12T08:19:23.988Z,17.70
2023-02-12T08:21:55.992Z,18.53
2023-02-12T08:24:24.575Z,21.20
2023-02-12T08:26:54.256Z,19.00
2023-02-12T08:29:24.824Z,20.63
2023-02-12T08:31:58.100Z,21.10
2023-02-12T08:34:27.839Z,21.87
2023-02-12T08:36:57.313Z,20.97
2023-02-12T08:39:27.398Z,22.73
2023-02-12T08:41:58.347Z,23.67
2023-02-12T08:44:27.109Z,23.33
2023-02-12T08:46:56.673Z,23.37
2023-02-12T08:49:27.167Z,22.93
2023-02-12T08:51:57.510Z,21.53
2023-02-12T08:54:27.933Z,23.10
2023-02-12T08:56:58.910Z,22.97
2023-02-12T08:59:27.761Z,23.30
2023-02-12T09:01:56.123Z,26.87
2023-02-12T09:04:26.779Z,26.60
2023-02-12T09:06:55.943Z,25.33
2023-02-12T09:09:24.368Z,24.20
2023-02-12T09:11:52.719Z,25.83
2023-02-12T09:14:25.024Z,25.93
2023-02-12T09:16:53.983Z,24.10
2023-02-12T09:19:22.355Z,23.27
2023-02-12T09:21:55.172Z,23.63
2023-02-12T09:24:24.302Z,22.43
2023-02-12T09:26:52.549Z,22.70
2023-02-12T09:29:22.176Z,16.43
2023-02-12T09:31:50.608Z,14.20
2023-02-12T09:34:18.917Z,12.97
2023-02-12T09:36:47.151Z,14.90
2023-02-12T09:39:15.424Z,14.57
2023-02-12T09:42:08.597Z,13.50
2023-02-12T09:44:45.742Z,14.20
2023-02-12T09:47:19.701Z,13.53
2023-02-12T09:50:07.004Z,12.90
2023-02-12T09:52:36.275Z,13.37
2023-02-12T09:55:05.128Z,15.37
2023-02-12T09:57:36.304Z,15.27
2023-02-12T10:00:09.287Z,15.90
2023-02-12T10:02:39.092Z,16.70
2023-02-12T10:05:15.722Z,17.50
2023-02-12T10:08:02.379Z,16.97
2023-02-12T10:10:44.761Z,15.57
2023-02-12T10:13:26.110Z,13.03
2023-02-12T10:15:59.492Z,12.63
2023-02-12T10:18:46.316Z,10.37
2023-02-12T10:21:30.013Z,10.23
2023-02-12T10:24:08.505Z,13.90
2023-02-12T10:26:40.612Z,12.50
2023-02-12T10:29:15.100Z,12.00
2023-02-12T10:31:48.527Z,12.43
2023-02-12T10:34:21.215Z,16.23
2023-02-12T10:36:52.738Z,12.90
2023-02-12T10:39:24.424Z,11.43
2023-02-12T10:41:59.785Z,10.33
2023-02-12T10:44:28.392Z,11.10
2023-02-12T10:46:58.119Z,11.27
2023-02-12T10:49:26.469Z,10.50
2023-02-12T10:52:12.746Z,9.53
2023-02-12T10:54:43.390Z,9.37
2023-02-12T10:57:19.253Z,8.93
2023-02-12T10:59:48.996Z,9.27
2023-02-12T11:02:27.130Z,8.23
2023-02-12T11:04:56.951Z,8.97
2023-02-12T11:07:26.537Z,8.70
2023-02-12T11:09:57.078Z,8.60
2023-02-12T11:12:33.633Z,8.80
2023-02-12T11:15:04.204Z,8.90
2023-02-12T11:17:36.994Z,9.17
2023-02-12T11:20:26.938Z,9.43
2023-02-12T11:22:58.117Z,9.60
2023-02-12T11:25:29.309Z,10.07
2023-02-12T11:28:03.463Z,9.37
2023-02-12T11:30:32.355Z,10.87
2023-02-12T11:33:26.058Z,10.03
2023-02-12T11:35:56.642Z,11.53
2023-02-12T11:38:31.770Z,11.00
2023-02-12T11:41:04.772Z,11.00
2023-02-12T11:43:37.325Z,11.90
2023-02-12T11:46:08.536Z,12.03
2023-02-12T11:48:40.721Z,12.53
2023-02-12T11:51:21.001Z,11.83
2023-02-12T11:53:52.295Z,11.93
2023-02-12T11:56:21.804Z,12.07
2023-02-12T11:58:51.540Z,11.97
2023-02-12T12:01:23.051Z,11.87
2023-02-12T12:03:59.963Z,12.47
2023-02-12T12:06:34.276Z,11.60
2023-02-12T12:09:08.426Z,11.47
2023-02-12T12:11:45.284Z,11.33
2023-02-12T12:14:22.321Z,12.50
2023-02-12T12:17:10.854Z,11.13
2023-02-12T12:19:54.937Z,11.37
2023-02-12T12:22:41.763Z,10.63
2023-02-12T12:25:18.653Z,11.67
2023-02-12T12:28:03.985Z,10.80
2023-02-12T12:30:53.743Z,11.50
2023-02-12T12:33:31.855Z,11.37
2023-02-12T12:36:33.104Z,11.13
2023-02-12T12:39:11.270Z,11.90
2023-02-12T12:41:49.986Z,11.03
2023-02-12T12:44:33.420Z,11.30
2023-02-12T12:47:11.765Z,11.67
2023-02-12T12:49:54.817Z,11.30
2023-02-12T12:52:47.241Z,12.17
2023-02-12T12:55:35.923Z,21.57
2023-02-12T12:58:12.917Z,13.27
2023-02-12T13:01:06.829Z,12.57
2023-02-12T13:04:14.728Z,11.37
2023-02-12T13:06:57.503Z,11.40
2023-02-12T13:09:39.189Z,12.50
2023-02-12T13:12:25.139Z,13.23
2023-02-12T13:15:00.477Z,13.60
2023-02-12T13:17:36.900Z,12.43
2023-02-12T13:20:13.260Z,12.60
2023-02-12T13:22:47.657Z,14.90
2023-02-12T13:25:25.719Z,13.30
2023-02-12T13:27:58.540Z,14.30
2023-02-12T13:30:31.531Z,13.80
2023-02-12T13:33:08.215Z,12.97
2023-02-12T13:35:42.432Z,13.13
2023-02-12T13:38:18.443Z,13.67
2023-02-12T13:40:49.664Z,13.47
2023-02-12T13:43:34.547Z,12.90
2023-02-12T13:46:09.216Z,14.67
2023-02-12T15:20:52.468Z,16.13
2023-02-12T15:23:33.517Z,15.27
2023-02-12T15:26:02.794Z,13.67
2023-02-12T15:28:35.423Z,13.23
2023-02-12T15:31:05.023Z,13.47
2023-02-12T15:33:35.876Z,13.53
2023-02-12T16:22:41.164Z,16.77
2023-02-12T16:25:17.576Z,16.33
2023-02-12T16:27:55.610Z,17.30
2023-02-12T16:30:27.789Z,16.80
2023-02-12T16:32:56.570Z,16.50
2023-02-12T16:35:29.557Z,15.50
2023-02-12T16:38:24.603Z,18.17
2023-02-12T16:41:20.844Z,20.83
2023-02-12T16:43:50.936Z,28.00
2023-02-12T16:46:22.552Z,18.97
2023-02-12T16:48:53.225Z,16.23
2023-02-12T16:51:25.488Z,24.60
2023-02-12T16:53:57.641Z,21.90
2023-02-12T16:56:28.071Z,25.07
2023-02-12T16:58:59.648Z,19.60
2023-02-12T17:01:29.839Z,17.40
2023-02-12T17:04:01.086Z,18.30
2023-02-12T17:06:31.233Z,17.30
2023-02-12T17:09:01.042Z,16.07
2023-02-12T17:11:29.969Z,15.73
2023-02-12T17:13:58.315Z,17.93
2023-02-12T17:16:31.595Z,20.40
2023-02-12T17:19:00.730Z,19.87
2023-02-12T17:21:31.740Z,16.93
2023-02-12T17:24:01.439Z,19.77
2023-02-12T17:26:29.851Z,19.77
2023-02-12T17:29:05.464Z,18.73
2023-02-12T17:31:34.121Z,20.80
2023-02-12T17:34:02.480Z,23.43
2023-02-12T17:36:30.804Z,22.33
2023-02-12T17:38:59.118Z,22.37
2023-02-12T17:41:28.830Z,21.20
2023-02-12T17:43:57.109Z,21.23
2023-02-12T17:46:27.567Z,21.50
2023-02-12T17:48:56.541Z,24.33
2023-02-12T17:51:25.465Z,22.43
2023-02-12T17:53:53.964Z,22.97
2023-02-12T17:56:25.566Z,23.53
2023-02-12T17:58:55.353Z,21.20
2023-02-12T18:01:25.301Z,23.07
2023-02-12T18:03:55.903Z,22.97
2023-02-12T18:06:26.598Z,22.20
2023-02-12T18:08:55.400Z,23.77
2023-02-12T18:11:23.692Z,23.03
2023-02-12T18:13:53.829Z,23.97
2023-02-12T18:16:24.752Z,24.93
2023-02-12T18:18:53.210Z,25.03
2023-02-12T18:21:21.677Z,26.33
2023-02-12T18:23:50.433Z,27.60
2023-02-12T18:26:19.957Z,27.77
2023-02-12T18:28:48.782Z,27.73
2023-02-12T18:31:19.411Z,25.63
2023-02-12T18:33:49.083Z,27.07
2023-02-12T18:36:18.902Z,27.17
2023-02-12T18:38:49.311Z,26.47
2023-02-12T18:41:19.775Z,26.87
2023-02-12T18:43:48.580Z,27.03
2023-02-12T18:46:19.953Z,27.93
2023-02-12T18:48:50.538Z,30.47
2023-02-12T18:51:22.382Z,28.27
2023-02-12T18:53:55.562Z,28.70
2023-02-12T18:56:24.190Z,29.53
2023-02-12T18:58:56.595Z,29.77
2023-02-12T19:01:25.972Z,29.63
2023-02-12T19:03:57.431Z,33.30
2023-02-12T19:06:26.001Z,30.07
2023-02-12T19:08:56.734Z,29.83
2023-02-12T19:11:25.521Z,26.87
2023-02-12T19:13:53.943Z,26.17
2023-02-12T19:16:24.499Z,26.73
2023-02-12T19:18:56.039Z,25.60
2023-02-12T19:21:26.450Z,27.60
2023-02-12T19:23:56.153Z,35.10
2023-02-12T19:26:25.221Z,38.90
2023-02-12T19:28:54.037Z,30.03
2023-02-12T19:31:24.667Z,27.90
2023-02-12T19:33:59.100Z,26.20
2023-02-12T19:36:29.097Z,28.00
2023-02-12T19:38:57.625Z,33.13
2023-02-12T19:41:27.695Z,29.57
2023-02-12T19:43:58.250Z,27.87
2023-02-12T19:46:28.322Z,27.03
2023-02-12T19:49:00.312Z,30.40
2023-02-12T19:51:30.575Z,35.77
2023-02-12T19:54:01.279Z,31.70
2023-02-12T19:56:29.916Z,34.83
2023-02-12T19:58:58.519Z,26.37
2023-02-12T20:01:27.294Z,33.17
2023-02-12T20:03:58.370Z,25.60
2023-02-12T20:06:28.978Z,32.63
2023-02-12T20:08:57.651Z,32.47
2023-02-12T20:11:28.818Z,27.50
2023-02-12T20:13:58.020Z,28.93
2023-02-12T20:16:31.249Z,24.93
2023-02-12T20:19:04.988Z,27.03
2023-02-12T20:21:33.421Z,25.23
2023-02-12T20:24:02.365Z,22.60
2023-02-12T20:26:32.592Z,23.70
2023-02-12T20:29:03.373Z,23.77
2023-02-12T20:31:36.040Z,27.53
2023-02-12T20:34:08.015Z,24.60
2023-02-12T20:36:38.130Z,23.53
2023-02-12T20:39:07.869Z,22.40
2023-02-12T20:41:37.208Z,22.90
2023-02-12T20:44:06.303Z,21.97
2023-02-12T20:46:39.280Z,22.70
2023-02-12T20:49:09.337Z,22.77
2023-02-12T20:51:38.273Z,21.93
2023-02-12T20:54:06.785Z,23.03
2023-02-12T20:56:37.118Z,23.80
2023-02-12T20:59:06.471Z,21.67
2023-02-12T21:01:36.976Z,23.33
2023-02-12T21:04:07.358Z,22.93
2023-02-12T21:06:40.118Z,23.97
2023-02-12T21:09:09.654Z,24.43
2023-02-12T21:11:39.787Z,48.87
2023-02-12T21:14:21.297Z,53.13
2023-02-12T21:16:50.668Z,47.60
2023-02-12T21:19:19.410Z,31.90
2023-02-12T21:21:49.075Z,27.37
2023-02-12T21:24:19.648Z,27.00
2023-02-12T21:26:48.168Z,25.17
2023-02-12T21:29:16.815Z,23.50
2023-02-12T21:31:46.986Z,24.80
2023-02-12T21:34:17.326Z,24.23
2023-02-12T21:36:46.932Z,23.23
2023-02-12T21:39:24.340Z,26.03
2023-02-12T21:41:54.436Z,23.83
2023-02-12T21:44:23.872Z,23.60
2023-02-12T21:46:52.676Z,23.80
2023-02-12T21:49:26.535Z,24.80
2023-02-12T21:51:56.835Z,24.63
2023-02-12T21:54:27.071Z,24.40
2023-02-12T21:56:55.706Z,25.27
2023-02-12T21:59:24.813Z,24.20
2023-02-12T22:01:55.314Z,24.97
2023-02-12T22:04:23.653Z,25.77
2023-02-12T22:06:52.830Z,24.73
2023-02-12T22:09:22.900Z,56.73
2023-02-12T22:11:53.154Z,58.13
2023-02-12T22:14:22.531Z,46.07
2023-02-12T22:16:51.023Z,36.70
2023-02-12T22:19:19.484Z,27.17
2023-02-12T22:21:51.336Z,25.07
2023-02-12T22:24:19.794Z,26.10
2023-02-12T22:26:48.121Z,24.67
2023-02-12T22:29:18.316Z,25.60
2023-02-12T22:31:47.903Z,24.57
2023-02-12T22:34:18.657Z,24.03
2023-02-12T22:36:48.023Z,24.50
2023-02-12T22:39:17.613Z,25.07
2023-02-12T22:41:46.293Z,24.80
2023-02-12T22:44:15.635Z,23.73
2023-02-12T22:46:46.060Z,24.40
2023-02-12T22:49:14.308Z,25.00
2023-02-12T22:51:42.850Z,25.07
2023-02-12T22:54:14.034Z,24.27
2023-02-12T22:56:42.352Z,26.00
2023-02-12T22:59:11.949Z,26.20
2023-02-12T23:01:40.436Z,24.77
2023-02-12T23:04:15.108Z,24.00
2023-02-12T23:06:43.856Z,24.83
2023-02-12T23:09:14.318Z,24.47
2023-02-12T23:11:42.697Z,23.47
2023-02-12T23:14:10.938Z,24.53
2023-02-12T23:16:39.933Z,25.47
2023-02-12T23:19:11.625Z,25.63
2023-02-12T23:21:40.576Z,26.40
2023-02-12T23:24:11.457Z,27.00
2023-02-12T23:26:39.808Z,28.00
2023-02-12T23:29:08.160Z,25.70
2023-02-12T23:31:36.497Z,26.47
2023-02-12T23:34:04.867Z,27.73
2023-02-12T23:36:34.431Z,28.37
2023-02-12T23:39:05.716Z,29.07
2023-02-12T23:41:33.996Z,28.07
2023-02-12T23:44:02.222Z,26.33
2023-02-12T23:46:30.526Z,26.83
2023-02-12T23:48:58.758Z,26.13
2023-02-12T23:51:27.111Z,24.87
2023-02-12T23:53:56.733Z,26.80
2023-02-12T23:56:25.211Z,27.23
2023-02-12T23:58:53.429Z,26.57
